sensor_id;sensor_type;location;lat;lon;timestamp;pressure;altitude;pressure_sealevel;temperature;humidity
3780;BME280;1905;52.482;9.802;2022-09-27T00:01:11;98839.41;;;12.31;77.80
3780;BME280;1905;52.482;9.802;2022-09-27T00:03:39;98843.13;;;12.28;77.89
3780;BME280;1905;52.482;9.802;2022-09-27T00:06:11;98833.50;;;12.27;77.60
3780;BME280;1905;52.482;9.802;2022-09-27T00:08:39;98838.78;;;12.27;77.82
3780;BME280;1905;52.482;9.802;2022-09-27T00:11:10;98836.84;;;12.29;77.96
3780;BME280;1905;52.482;9.802;2022-09-27T00:13:40;98822.91;;;12.27;77.86
3780;BME280;1905;52.482;9.802;2022-09-27T00:16:09;98825.41;;;12.29;77.71
3780;BME280;1905;52.482;9.802;2022-09-27T00:18:37;98824.59;;;12.28;77.56
3780;BME280;1905;52.482;9.802;2022-09-27T00:21:06;98823.63;;;12.29;77.74
3780;BME280;1905;52.482;9.802;2022-09-27T00:23:34;98825.41;;;12.29;77.74
3780;BME280;1905;52.482;9.802;2022-09-27T00:26:03;98822.78;;;12.29;78.18
3780;BME280;1905;52.482;9.802;2022-09-27T00:28:33;98815.69;;;12.29;77.40
3780;BME280;1905;52.482;9.802;2022-09-27T00:31:01;98820.72;;;12.32;77.49
3780;BME280;1905;52.482;9.802;2022-09-27T00:33:30;98820.97;;;12.29;77.49
3780;BME280;1905;52.482;9.802;2022-09-27T00:36:03;98818.22;;;12.31;77.48
3780;BME280;1905;52.482;9.802;2022-09-27T00:38:31;98816.78;;;12.27;77.90
3780;BME280;1905;52.482;9.802;2022-09-27T00:40:59;98812.44;;;12.26;77.90
3780;BME280;1905;52.482;9.802;2022-09-27T00:43:42;98814.25;;;12.25;77.57
3780;BME280;1905;52.482;9.802;2022-09-27T00:46:12;98813.41;;;12.25;77.76
3780;BME280;1905;52.482;9.802;2022-09-27T00:48:42;98812.56;;;12.24;78.03
3780;BME280;1905;52.482;9.802;2022-09-27T00:51:09;98808.13;;;12.25;77.85
3780;BME280;1905;52.482;9.802;2022-09-27T00:53:40;98805.56;;;12.23;77.88
3780;BME280;1905;52.482;9.802;2022-09-27T00:56:14;98803.66;;;12.25;77.66
3780;BME280;1905;52.482;9.802;2022-09-27T00:58:46;98797.78;;;12.22;77.82
3780;BME280;1905;52.482;9.802;2022-09-27T01:01:15;98802.13;;;12.23;77.69
3780;BME280;1905;52.482;9.802;2022-09-27T01:03:48;98793.31;;;12.22;77.89
3780;BME280;1905;52.482;9.802;2022-09-27T01:06:18;98791.63;;;12.21;77.77
3780;BME280;1905;52.482;9.802;2022-09-27T01:08:47;98799.56;;;12.21;78.19
3780;BME280;1905;52.482;9.802;2022-09-27T01:11:24;98794.28;;;12.21;77.75
3780;BME280;1905;52.482;9.802;2022-09-27T01:14:15;98793.09;;;12.25;77.61
3780;BME280;1905;52.482;9.802;2022-09-27T01:16:53;98786.94;;;12.25;77.61
3780;BME280;1905;52.482;9.802;2022-09-27T01:19:41;98788.03;;;12.22;77.59
3780;BME280;1905;52.482;9.802;2022-09-27T01:22:14;98792.47;;;12.22;77.97
3780;BME280;1905;52.482;9.802;2022-09-27T01:24:54;98784.66;;;12.20;77.62
3780;BME280;1905;52.482;9.802;2022-09-27T01:27:40;98787.19;;;12.22;77.79
3780;BME280;1905;52.482;9.802;2022-09-27T01:30:16;98783.00;;;12.19;77.83
3780;BME280;1905;52.482;9.802;2022-09-27T01:32:53;98779.34;;;12.20;77.84
3780;BME280;1905;52.482;9.802;2022-09-27T01:35:29;98781.91;;;12.22;77.84
3780;BME280;1905;52.482;9.802;2022-09-27T01:38:10;98784.66;;;12.20;78.09
3780;BME280;1905;52.482;9.802;2022-09-27T01:40:43;98781.06;;;12.21;78.17
3780;BME280;1905;52.482;9.802;2022-09-27T01:43:46;98775.75;;;12.21;78.03
3780;BME280;1905;52.482;9.802;2022-09-27T01:46:25;98773.56;;;12.26;78.01
3780;BME280;1905;52.482;9.802;2022-09-27T01:49:16;98767.72;;;12.23;78.27
3780;BME280;1905;52.482;9.802;2022-09-27T01:51:48;98768.78;;;12.20;78.20
3780;BME280;1905;52.482;9.802;2022-09-27T01:54:22;98775.75;;;12.21;78.06
3780;BME280;1905;52.482;9.802;2022-09-27T01:57:12;98771.31;;;12.22;77.92
3780;BME280;1905;52.482;9.802;2022-09-27T01:59:47;98766.88;;;12.22;77.85
3780;BME280;1905;52.482;9.802;2022-09-27T02:02:47;98770.22;;;12.24;77.90
3780;BME280;1905;52.482;9.802;2022-09-27T02:05:31;98768.53;;;12.23;78.11
3780;BME280;1905;52.482;9.802;2022-09-27T02:08:30;98763.22;;;12.23;77.99
3780;BME280;1905;52.482;9.802;2022-09-27T02:11:09;98769.75;;;12.19;77.60
3780;BME280;1905;52.482;9.802;2022-09-27T02:13:47;98757.94;;;12.23;78.07
3780;BME280;1905;52.482;9.802;2022-09-27T02:16:45;98761.56;;;12.22;77.83
3780;BME280;1905;52.482;9.802;2022-09-27T02:19:25;98758.06;;;12.22;77.99
3780;BME280;1905;52.482;9.802;2022-09-27T02:22:00;98759.88;;;12.21;78.08
3780;BME280;1905;52.482;9.802;2022-09-27T02:24:43;98757.38;;;12.20;77.88
3780;BME280;1905;52.482;9.802;2022-09-27T02:27:17;98754.47;;;12.23;78.29
3780;BME280;1905;52.482;9.802;2022-09-27T02:29:49;98751.09;;;12.21;78.33
3780;BME280;1905;52.482;9.802;2022-09-27T02:32:19;98755.19;;;12.25;77.75
3780;BME280;1905;52.482;9.802;2022-09-27T02:34:49;98756.97;;;12.24;78.00
3780;BME280;1905;52.482;9.802;2022-09-27T02:37:18;98756.28;;;12.22;78.18
3780;BME280;1905;52.482;9.802;2022-09-27T02:39:46;98755.03;;;12.26;78.02
3780;BME280;1905;52.482;9.802;2022-09-27T02:42:15;98744.09;;;12.31;77.54
3780;BME280;1905;52.482;9.802;2022-09-27T02:44:43;98745.19;;;12.28;77.85
3780;BME280;1905;52.482;9.802;2022-09-27T02:47:34;98749.66;;;12.28;77.56
3780;BME280;1905;52.482;9.802;2022-09-27T02:50:18;98743.50;;;12.27;78.00
3780;BME280;1905;52.482;9.802;2022-09-27T02:53:22;98739.16;;;12.26;77.77
3780;BME280;1905;52.482;9.802;2022-09-27T02:56:02;98744.00;;;12.21;78.13
3780;BME280;1905;52.482;9.802;2022-09-27T02:58:57;98744.84;;;12.22;78.26
3780;BME280;1905;52.482;9.802;2022-09-27T03:01:52;98744.00;;;12.21;78.54
3780;BME280;1905;52.482;9.802;2022-09-27T03:04:34;98742.31;;;12.20;78.67
3780;BME280;1905;52.482;9.802;2022-09-27T03:07:06;98746.66;;;12.21;78.41
3780;BME280;1905;52.482;9.802;2022-09-27T03:09:40;98746.41;;;12.24;78.17
3780;BME280;1905;52.482;9.802;2022-09-27T03:12:09;98742.06;;;12.23;78.35
3780;BME280;1905;52.482;9.802;2022-09-27T03:14:37;98742.06;;;12.23;78.07
3780;BME280;1905;52.482;9.802;2022-09-27T03:17:25;98742.66;;;12.27;78.33
3780;BME280;1905;52.482;9.802;2022-09-27T03:20:19;98743.50;;;12.27;78.90
3780;BME280;1905;52.482;9.802;2022-09-27T03:22:52;98745.44;;;12.25;78.50
3780;BME280;1905;52.482;9.802;2022-09-27T03:25:21;98750.97;;;12.22;78.54
3780;BME280;1905;52.482;9.802;2022-09-27T03:27:49;98750.97;;;12.22;78.69
3780;BME280;1905;52.482;9.802;2022-09-27T03:30:17;98742.06;;;12.23;78.53
3780;BME280;1905;52.482;9.802;2022-09-27T03:32:45;98749.50;;;12.29;78.21
3780;BME280;1905;52.482;9.802;2022-09-27T03:35:31;98742.66;;;12.27;78.11
3780;BME280;1905;52.482;9.802;2022-09-27T03:38:00;98740.97;;;12.26;78.61
3780;BME280;1905;52.482;9.802;2022-09-27T03:40:28;98738.22;;;12.27;77.99
3780;BME280;1905;52.482;9.802;2022-09-27T03:42:56;98743.50;;;12.27;78.69
3780;BME280;1905;52.482;9.802;2022-09-27T03:45:24;98734.84;;;12.25;78.10
3780;BME280;1905;52.482;9.802;2022-09-27T03:47:52;98732.91;;;12.27;78.18
3780;BME280;1905;52.482;9.802;2022-09-27T03:50:21;98741.81;;;12.26;78.59
3780;BME280;1905;52.482;9.802;2022-09-27T03:52:48;98730.38;;;12.26;78.42
3780;BME280;1905;52.482;9.802;2022-09-27T03:55:17;98732.91;;;12.27;78.42
3780;BME280;1905;52.482;9.802;2022-09-27T03:57:45;98727.63;;;12.27;78.65
3780;BME280;1905;52.482;9.802;2022-09-27T04:00:15;98734.63;;;12.28;78.08
3780;BME280;1905;52.482;9.802;2022-09-27T04:02:43;98729.31;;;12.28;78.47
3780;BME280;1905;52.482;9.802;2022-09-27T04:05:40;98740.16;;;12.25;78.77
3780;BME280;1905;52.482;9.802;2022-09-27T04:08:13;98735.69;;;12.26;78.55
3780;BME280;1905;52.482;9.802;2022-09-27T04:10:42;98733.75;;;12.28;78.53
3780;BME280;1905;52.482;9.802;2022-09-27T04:13:09;98736.66;;;12.25;78.37
3780;BME280;1905;52.482;9.802;2022-09-27T04:15:44;98740.16;;;12.25;78.64
3780;BME280;1905;52.482;9.802;2022-09-27T04:18:56;98743.03;;;12.22;79.28
3780;BME280;1905;52.482;9.802;2022-09-27T04:21:43;98736.53;;;12.26;79.13
3780;BME280;1905;52.482;9.802;2022-09-27T04:24:16;98739.56;;;12.22;79.60
3780;BME280;1905;52.482;9.802;2022-09-27T04:26:58;98749.28;;;12.21;79.08
3780;BME280;1905;52.482;9.802;2022-09-27T04:29:26;98740.50;;;12.21;79.27
3780;BME280;1905;52.482;9.802;2022-09-27T04:31:58;98747.34;;;12.23;79.04
3780;BME280;1905;52.482;9.802;2022-09-27T04:34:52;98754.09;;;12.27;79.08
3780;BME280;1905;52.482;9.802;2022-09-27T04:37:37;98759.63;;;12.24;79.14
3780;BME280;1905;52.482;9.802;2022-09-27T04:40:06;98754.09;;;12.27;78.57
3780;BME280;1905;52.482;9.802;2022-09-27T04:42:35;98750.50;;;12.28;78.87
3780;BME280;1905;52.482;9.802;2022-09-27T04:45:04;98754.09;;;12.27;78.88
3780;BME280;1905;52.482;9.802;2022-09-27T04:47:32;98754.09;;;12.27;78.42
3780;BME280;1905;52.482;9.802;2022-09-27T04:50:02;98761.19;;;12.27;78.96
3780;BME280;1905;52.482;9.802;2022-09-27T04:52:29;98760.34;;;12.26;78.95
3780;BME280;1905;52.482;9.802;2022-09-27T04:54:57;98767.56;;;12.24;79.08
3780;BME280;1905;52.482;9.802;2022-09-27T04:57:26;98765.78;;;12.25;79.00
3780;BME280;1905;52.482;9.802;2022-09-27T04:59:55;98770.34;;;12.23;79.04
3780;BME280;1905;52.482;9.802;2022-09-27T05:02:25;98771.16;;;12.23;79.08
3780;BME280;1905;52.482;9.802;2022-09-27T05:05:28;98774.06;;;12.20;79.19
3780;BME280;1905;52.482;9.802;2022-09-27T05:07:56;98766.25;;;12.19;78.91
3780;BME280;1905;52.482;9.802;2022-09-27T05:10:43;98776.59;;;12.22;78.53
3780;BME280;1905;52.482;9.802;2022-09-27T05:13:11;98781.28;;;12.18;79.31
3780;BME280;1905;52.482;9.802;2022-09-27T05:15:40;98781.28;;;12.18;79.16
3780;BME280;1905;52.482;9.802;2022-09-27T05:18:38;98788.53;;;12.16;79.06
3780;BME280;1905;52.482;9.802;2022-09-27T05:21:37;98786.00;;;12.15;79.26
3780;BME280;1905;52.482;9.802;2022-09-27T05:24:05;98787.91;;;12.13;79.37
3780;BME280;1905;52.482;9.802;2022-09-27T05:26:33;98793.09;;;12.14;79.24
3780;BME280;1905;52.482;9.802;2022-09-27T05:29:02;98798.88;;;12.19;79.32
3780;BME280;1905;52.482;9.802;2022-09-27T05:31:31;98798.16;;;12.17;78.99
3780;BME280;1905;52.482;9.802;2022-09-27T05:34:07;98798.25;;;12.16;78.87
3780;BME280;1905;52.482;9.802;2022-09-27T05:36:45;98803.56;;;12.16;78.98
3780;BME280;1905;52.482;9.802;2022-09-27T05:39:13;98802.13;;;12.12;79.57
3780;BME280;1905;52.482;9.802;2022-09-27T05:41:42;98795.00;;;12.12;79.58
3780;BME280;1905;52.482;9.802;2022-09-27T05:44:10;98800.44;;;12.11;79.48
3780;BME280;1905;52.482;9.802;2022-09-27T05:46:46;98808.25;;;12.12;79.19
3780;BME280;1905;52.482;9.802;2022-09-27T05:49:14;98806.34;;;12.14;78.61
3780;BME280;1905;52.482;9.802;2022-09-27T05:51:42;98809.09;;;12.13;79.04
3780;BME280;1905;52.482;9.802;2022-09-27T05:54:10;98812.59;;;12.13;79.36
3780;BME280;1905;52.482;9.802;2022-09-27T05:56:38;98812.81;;;12.10;79.31
3780;BME280;1905;52.482;9.802;2022-09-27T05:59:16;98811.97;;;12.10;79.31
3780;BME280;1905;52.482;9.802;2022-09-27T06:02:05;98813.81;;;12.09;78.89
3780;BME280;1905;52.482;9.802;2022-09-27T06:04:52;98813.81;;;12.09;79.64
3780;BME280;1905;52.482;9.802;2022-09-27T06:07:40;98808.75;;;12.06;79.60
3780;BME280;1905;52.482;9.802;2022-09-27T06:10:17;98798.16;;;12.06;79.53
3780;BME280;1905;52.482;9.802;2022-09-27T06:12:45;98812.22;;;12.07;79.89
3780;BME280;1905;52.482;9.802;2022-09-27T06:15:31;98815.00;;;12.05;79.50
3780;BME280;1905;52.482;9.802;2022-09-27T06:18:03;98819.34;;;12.06;79.79
3780;BME280;1905;52.482;9.802;2022-09-27T06:20:33;98826.53;;;12.04;79.62
3780;BME280;1905;52.482;9.802;2022-09-27T06:23:06;98828.00;;;12.08;79.67
3780;BME280;1905;52.482;9.802;2022-09-27T06:25:36;98821.25;;;12.04;80.27
3780;BME280;1905;52.482;9.802;2022-09-27T06:28:31;98825.34;;;12.08;80.22
3780;BME280;1905;52.482;9.802;2022-09-27T06:31:04;98835.06;;;12.08;80.38
3780;BME280;1905;52.482;9.802;2022-09-27T06:33:39;98833.88;;;12.12;80.55
3780;BME280;1905;52.482;9.802;2022-09-27T06:36:07;98830.38;;;12.11;79.77
3780;BME280;1905;52.482;9.802;2022-09-27T06:38:38;98835.69;;;12.11;80.22
3780;BME280;1905;52.482;9.802;2022-09-27T06:41:27;98834.84;;;12.11;80.06
3780;BME280;1905;52.482;9.802;2022-09-27T06:44:15;98838.09;;;12.14;79.92
3780;BME280;1905;52.482;9.802;2022-09-27T06:47:02;98844.09;;;12.16;80.13
3780;BME280;1905;52.482;9.802;2022-09-27T06:49:47;98851.09;;;12.17;80.05
3780;BME280;1905;52.482;9.802;2022-09-27T06:52:17;98846.75;;;12.16;79.95
3780;BME280;1905;52.482;9.802;2022-09-27T06:54:45;98844.81;;;12.18;79.90
3780;BME280;1905;52.482;9.802;2022-09-27T06:57:13;98856.84;;;12.22;79.97
3780;BME280;1905;52.482;9.802;2022-09-27T07:00:02;98853.97;;;12.25;80.16
3780;BME280;1905;52.482;9.802;2022-09-27T07:03:08;98861.28;;;12.22;80.12
3780;BME280;1905;52.482;9.802;2022-09-27T07:05:55;98860.44;;;12.21;79.31
3780;BME280;1905;52.482;9.802;2022-09-27T07:08:49;98869.09;;;12.23;79.55
3780;BME280;1905;52.482;9.802;2022-09-27T07:11:17;98874.38;;;12.23;80.05
3780;BME280;1905;52.482;9.802;2022-09-27T07:13:45;98878.03;;;12.22;80.06
3780;BME280;1905;52.482;9.802;2022-09-27T07:16:13;98874.53;;;12.22;80.22
3780;BME280;1905;52.482;9.802;2022-09-27T07:18:41;98871.63;;;12.25;80.25
3780;BME280;1905;52.482;9.802;2022-09-27T07:21:10;98885.81;;;12.24;80.05
3780;BME280;1905;52.482;9.802;2022-09-27T07:23:38;98881.38;;;12.24;79.89
3780;BME280;1905;52.482;9.802;2022-09-27T07:26:08;98884.50;;;12.29;80.05
3780;BME280;1905;52.482;9.802;2022-09-27T07:28:37;98886.44;;;12.27;79.97
3780;BME280;1905;52.482;9.802;2022-09-27T07:31:08;98890.03;;;12.26;80.34
3780;BME280;1905;52.482;9.802;2022-09-27T07:33:37;98890.03;;;12.26;80.45
3780;BME280;1905;52.482;9.802;2022-09-27T07:36:11;98894.47;;;12.26;80.21
3780;BME280;1905;52.482;9.802;2022-09-27T07:38:42;98903.03;;;12.29;80.32
3780;BME280;1905;52.482;9.802;2022-09-27T07:41:11;98904.00;;;12.28;79.97
3780;BME280;1905;52.482;9.802;2022-09-27T07:43:40;98899.28;;;12.32;80.01
3780;BME280;1905;52.482;9.802;2022-09-27T07:46:09;98903.97;;;12.39;79.65
3780;BME280;1905;52.482;9.802;2022-09-27T07:48:53;98906.75;;;12.38;80.13
3780;BME280;1905;52.482;9.802;2022-09-27T07:51:42;98909.16;;;12.41;79.93
3780;BME280;1905;52.482;9.802;2022-09-27T07:54:26;98912.41;;;12.33;80.15
3780;BME280;1905;52.482;9.802;2022-09-27T07:57:15;98916.97;;;12.42;80.30
3780;BME280;1905;52.482;9.802;2022-09-27T07:59:48;98918.06;;;12.40;79.60
3780;BME280;1905;52.482;9.802;2022-09-27T08:02:19;98926.38;;;12.35;79.88
3780;BME280;1905;52.482;9.802;2022-09-27T08:04:48;98928.06;;;12.36;79.98
3780;BME280;1905;52.482;9.802;2022-09-27T08:07:18;98929.50;;;12.40;79.79
3780;BME280;1905;52.482;9.802;2022-09-27T08:09:49;98940.31;;;12.37;80.14
3780;BME280;1905;52.482;9.802;2022-09-27T08:12:18;98939.22;;;12.40;80.17
3780;BME280;1905;52.482;9.802;2022-09-27T08:14:47;98933.47;;;12.35;80.47
3780;BME280;1905;52.482;9.802;2022-09-27T08:17:17;98948.97;;;12.39;79.90
3780;BME280;1905;52.482;9.802;2022-09-27T08:20:04;98948.41;;;12.36;80.13
3780;BME280;1905;52.482;9.802;2022-09-27T08:23:05;98945.84;;;12.34;80.20
3780;BME280;1905;52.482;9.802;2022-09-27T08:25:36;98954.78;;;12.33;80.53
3780;BME280;1905;52.482;9.802;2022-09-27T08:28:12;98966.31;;;12.32;80.35
3780;BME280;1905;52.482;9.802;2022-09-27T08:30:43;98961.97;;;12.31;80.48
3780;BME280;1905;52.482;9.802;2022-09-27T08:33:11;98967.88;;;12.35;80.71
3780;BME280;1905;52.482;9.802;2022-09-27T08:35:42;98968.00;;;12.33;80.19
3780;BME280;1905;52.482;9.802;2022-09-27T08:38:14;98974.97;;;12.34;80.25
3780;BME280;1905;52.482;9.802;2022-09-27T08:40:50;98974.88;;;12.36;80.04
3780;BME280;1905;52.482;9.802;2022-09-27T08:43:29;98990.75;;;12.36;80.23
3780;BME280;1905;52.482;9.802;2022-09-27T08:46:07;98982.91;;;12.34;80.44
3780;BME280;1905;52.482;9.802;2022-09-27T08:48:38;98982.81;;;12.36;80.20
3780;BME280;1905;52.482;9.802;2022-09-27T08:51:09;98989.78;;;12.37;80.10
3780;BME280;1905;52.482;9.802;2022-09-27T08:53:45;98993.88;;;12.41;80.25
3780;BME280;1905;52.482;9.802;2022-09-27T08:56:15;98998.31;;;12.40;80.31
3780;BME280;1905;52.482;9.802;2022-09-27T08:58:50;98996.41;;;12.42;80.12
3780;BME280;1905;52.482;9.802;2022-09-27T09:01:23;98992.91;;;12.42;80.02
3780;BME280;1905;52.482;9.802;2022-09-27T09:04:01;98999.03;;;12.42;80.15
3780;BME280;1905;52.482;9.802;2022-09-27T09:06:38;98999.78;;;12.44;80.18
3780;BME280;1905;52.482;9.802;2022-09-27T09:09:19;98995.81;;;12.50;80.24
3780;BME280;1905;52.482;9.802;2022-09-27T09:12:25;99007.97;;;12.52;80.89
3780;BME280;1905;52.482;9.802;2022-09-27T09:15:21;98996.88;;;12.59;80.69
3780;BME280;1905;52.482;9.802;2022-09-27T09:18:10;99004.81;;;12.59;80.66
3780;BME280;1905;52.482;9.802;2022-09-27T09:21:08;98996.41;;;12.65;81.19
3780;BME280;1905;52.482;9.802;2022-09-27T09:23:53;98995.31;;;12.67;81.03
3780;BME280;1905;52.482;9.802;2022-09-27T09:26:32;98997.47;;;12.73;81.63
3780;BME280;1905;52.482;9.802;2022-09-27T09:29:19;98989.41;;;12.75;81.51
3780;BME280;1905;52.482;9.802;2022-09-27T09:31:57;99000.50;;;12.80;81.30
3780;BME280;1905;52.482;9.802;2022-09-27T09:34:33;98998.56;;;12.82;81.27
3780;BME280;1905;52.482;9.802;2022-09-27T09:37:10;99006.38;;;12.83;80.96
3780;BME280;1905;52.482;9.802;2022-09-27T09:39:42;99003.38;;;12.88;81.54
3780;BME280;1905;52.482;9.802;2022-09-27T09:42:19;99006.50;;;12.93;81.55
3780;BME280;1905;52.482;9.802;2022-09-27T09:44:54;99000.94;;;12.96;80.95
3780;BME280;1905;52.482;9.802;2022-09-27T09:47:30;99003.22;;;13.00;80.35
3780;BME280;1905;52.482;9.802;2022-09-27T09:50:05;98998.63;;;13.02;80.25
3780;BME280;1905;52.482;9.802;2022-09-27T09:52:43;99005.28;;;13.08;79.48
3780;BME280;1905;52.482;9.802;2022-09-27T09:55:18;99004.31;;;13.09;79.63
3780;BME280;1905;52.482;9.802;2022-09-27T09:57:59;99006.72;;;13.12;79.08
3780;BME280;1905;52.482;9.802;2022-09-27T10:00:39;99006.59;;;13.13;79.22
3780;BME280;1905;52.482;9.802;2022-09-27T10:03:06;99010.56;;;13.19;79.36
3780;BME280;1905;52.482;9.802;2022-09-27T10:05:34;99015.00;;;13.19;79.08
3780;BME280;1905;52.482;9.802;2022-09-27T10:08:12;99009.59;;;13.20;78.96
3780;BME280;1905;52.482;9.802;2022-09-27T10:10:42;98992.00;;;13.19;79.70
3780;BME280;1905;52.482;9.802;2022-09-27T10:13:33;99004.88;;;13.24;79.26
3780;BME280;1905;52.482;9.802;2022-09-27T10:16:04;99000.16;;;13.27;79.10
3780;BME280;1905;52.482;9.802;2022-09-27T10:18:35;99002.31;;;13.33;78.80
3780;BME280;1905;52.482;9.802;2022-09-27T10:21:07;98996.31;;;13.31;79.36
3780;BME280;1905;52.482;9.802;2022-09-27T10:24:11;99005.44;;;13.38;78.62
3780;BME280;1905;52.482;9.802;2022-09-27T10:27:03;99005.19;;;13.41;78.96
3780;BME280;1905;52.482;9.802;2022-09-27T10:29:36;99001.69;;;13.41;78.49
3780;BME280;1905;52.482;9.802;2022-09-27T10:32:21;99003.88;;;13.36;77.99
3780;BME280;1905;52.482;9.802;2022-09-27T10:35:33;99003.38;;;13.42;78.14
3780;BME280;1905;52.482;9.802;2022-09-27T10:38:20;99002.28;;;13.44;77.80
3780;BME280;1905;52.482;9.802;2022-09-27T10:40:55;99010.00;;;13.47;78.19
3780;BME280;1905;52.482;9.802;2022-09-27T10:43:31;99013.59;;;13.46;77.67
3780;BME280;1905;52.482;9.802;2022-09-27T10:46:24;99012.91;;;13.44;77.76
3780;BME280;1905;52.482;9.802;2022-09-27T10:49:07;99016.41;;;13.45;78.20
3780;BME280;1905;52.482;9.802;2022-09-27T10:51:38;99018.19;;;13.44;77.78
3780;BME280;1905;52.482;9.802;2022-09-27T10:54:18;99012.41;;;13.50;77.73
3780;BME280;1905;52.482;9.802;2022-09-27T10:56:57;99023.25;;;13.47;78.01
3780;BME280;1905;52.482;9.802;2022-09-27T10:59:26;99011.66;;;13.48;77.46
3780;BME280;1905;52.482;9.802;2022-09-27T11:01:58;99016.59;;;13.53;77.39
3780;BME280;1905;52.482;9.802;2022-09-27T11:04:38;99016.00;;;13.49;77.54
3780;BME280;1905;52.482;9.802;2022-09-27T11:07:12;99020.22;;;13.52;77.84
3780;BME280;1905;52.482;9.802;2022-09-27T11:09:47;99011.63;;;13.59;77.24
3780;BME280;1905;52.482;9.802;2022-09-27T11:12:17;99016.94;;;13.59;77.46
3780;BME280;1905;52.482;9.802;2022-09-27T11:14:53;99015.50;;;13.55;76.86
3780;BME280;1905;52.482;9.802;2022-09-27T11:17:31;99030.06;;;13.61;76.92
3780;BME280;1905;52.482;9.802;2022-09-27T11:20:13;99021.97;;;13.62;76.23
3780;BME280;1905;52.482;9.802;2022-09-27T11:23:10;99026.53;;;13.71;76.33
3780;BME280;1905;52.482;9.802;2022-09-27T11:25:54;99013.38;;;13.70;76.49
3780;BME280;1905;52.482;9.802;2022-09-27T11:28:35;99021.81;;;13.75;76.57
3780;BME280;1905;52.482;9.802;2022-09-27T11:31:15;99013.56;;;13.78;76.42
3780;BME280;1905;52.482;9.802;2022-09-27T11:34:06;99016.72;;;13.83;76.35
3780;BME280;1905;52.482;9.802;2022-09-27T11:36:50;99013.06;;;13.84;75.95
3780;BME280;1905;52.482;9.802;2022-09-27T11:39:31;99018.28;;;13.86;75.80
3780;BME280;1905;52.482;9.802;2022-09-27T11:42:25;99018.28;;;13.86;75.72
3780;BME280;1905;52.482;9.802;2022-09-27T11:45:16;99022.97;;;13.82;75.63
3780;BME280;1905;52.482;9.802;2022-09-27T11:48:19;99023.84;;;13.83;74.27
3780;BME280;1905;52.482;9.802;2022-09-27T11:51:07;99027.44;;;13.82;74.36
3780;BME280;1905;52.482;9.802;2022-09-27T11:53:50;99038.75;;;13.84;73.34
3780;BME280;1905;52.482;9.802;2022-09-27T11:56:29;99039.88;;;13.81;74.50
3780;BME280;1905;52.482;9.802;2022-09-27T11:59:25;99047.72;;;13.83;74.06
3780;BME280;1905;52.482;9.802;2022-09-27T12:02:03;99058.13;;;13.75;74.67
3780;BME280;1905;52.482;9.802;2022-09-27T12:04:54;99052.81;;;13.75;74.27
3780;BME280;1905;52.482;9.802;2022-09-27T12:07:30;99055.72;;;13.71;74.35
3780;BME280;1905;52.482;9.802;2022-09-27T12:10:07;99059.13;;;13.62;74.18
3780;BME280;1905;52.482;9.802;2022-09-27T12:12:37;99058.16;;;13.63;74.82
3780;BME280;1905;52.482;9.802;2022-09-27T12:15:13;99064.66;;;13.59;75.04
3780;BME280;1905;52.482;9.802;2022-09-27T12:17:44;99073.88;;;13.55;74.84
3780;BME280;1905;52.482;9.802;2022-09-27T12:20:20;99077.72;;;13.51;75.54
3780;BME280;1905;52.482;9.802;2022-09-27T12:22:54;99074.97;;;13.53;75.68
3780;BME280;1905;52.482;9.802;2022-09-27T12:25:48;99075.44;;;13.47;75.81
3780;BME280;1905;52.482;9.802;2022-09-27T12:28:28;99083.25;;;13.48;75.95
3780;BME280;1905;52.482;9.802;2022-09-27T12:31:04;99087.63;;;13.49;75.61
3780;BME280;1905;52.482;9.802;2022-09-27T12:34:00;99079.41;;;13.52;75.71
3780;BME280;1905;52.482;9.802;2022-09-27T12:36:32;99086.78;;;13.38;76.25
3780;BME280;1905;52.482;9.802;2022-09-27T12:39:14;99085.00;;;13.38;76.24
3780;BME280;1905;52.482;9.802;2022-09-27T12:41:51;99084.03;;;13.39;76.24
3780;BME280;1905;52.482;9.802;2022-09-27T12:44:39;99094.41;;;13.42;75.96
3780;BME280;1905;52.482;9.802;2022-09-27T12:47:23;99098.72;;;13.32;76.29
3780;BME280;1905;52.482;9.802;2022-09-27T12:50:02;99093.44;;;13.32;76.28
3780;BME280;1905;52.482;9.802;2022-09-27T12:52:36;99089.81;;;13.33;76.58
3780;BME280;1905;52.482;9.802;2022-09-27T12:55:38;99094.03;;;13.36;76.29
3780;BME280;1905;52.482;9.802;2022-09-27T12:58:22;99089.81;;;13.33;76.56
3780;BME280;1905;52.482;9.802;2022-09-27T13:00:58;99098.25;;;13.27;76.53
3780;BME280;1905;52.482;9.802;2022-09-27T13:03:42;99096.09;;;13.21;76.95
3780;BME280;1905;52.482;9.802;2022-09-27T13:06:35;99094.44;;;13.20;76.84
3780;BME280;1905;52.482;9.802;2022-09-27T13:12:21;99100.91;;;13.16;77.21
3780;BME280;1905;52.482;9.802;2022-09-27T13:14:58;99096.84;;;13.12;76.84
3780;BME280;1905;52.482;9.802;2022-09-27T13:17:31;99096.84;;;13.12;77.40
3780;BME280;1905;52.482;9.802;2022-09-27T13:20:36;99095.16;;;13.11;77.44
3780;BME280;1905;52.482;9.802;2022-09-27T13:26:46;99095.38;;;13.08;77.40
3780;BME280;1905;52.482;9.802;2022-09-27T13:29:36;99100.22;;;13.14;77.27
3780;BME280;1905;52.482;9.802;2022-09-27T13:32:17;99102.38;;;13.09;77.32
3780;BME280;1905;52.482;9.802;2022-09-27T13:35:11;99102.59;;;13.06;77.30
3780;BME280;1905;52.482;9.802;2022-09-27T13:37:51;99103.25;;;13.09;77.46
3780;BME280;1905;52.482;9.802;2022-09-27T13:40:32;99102.38;;;13.09;77.53
3780;BME280;1905;52.482;9.802;2022-09-27T13:43:40;99111.91;;;13.11;77.34
3780;BME280;1905;52.482;9.802;2022-09-27T13:46:25;99115.84;;;13.06;77.58
3780;BME280;1905;52.482;9.802;2022-09-27T13:48:56;99105.66;;;13.13;77.40
3780;BME280;1905;52.482;9.802;2022-09-27T13:51:41;99112.50;;;13.15;77.39
3780;BME280;1905;52.482;9.802;2022-09-27T13:54:35;99105.38;;;13.16;77.40
3780;BME280;1905;52.482;9.802;2022-09-27T13:57:05;99104.41;;;13.17;77.25
3780;BME280;1905;52.482;9.802;2022-09-27T13:59:56;99104.28;;;13.18;77.34
3780;BME280;1905;52.482;9.802;2022-09-27T14:02:59;99101.41;;;13.21;77.32
3780;BME280;1905;52.482;9.802;2022-09-27T14:05:32;99102.25;;;13.22;77.30
3780;BME280;1905;52.482;9.802;2022-09-27T14:08:03;99108.03;;;13.27;77.23
3780;BME280;1905;52.482;9.802;2022-09-27T14:10:33;99107.06;;;13.28;76.98
3780;BME280;1905;52.482;9.802;2022-09-27T14:13:04;99114.63;;;13.32;76.99
3780;BME280;1905;52.482;9.802;2022-09-27T14:15:43;99114.63;;;13.32;77.14
3780;BME280;1905;52.482;9.802;2022-09-27T14:18:13;99114.88;;;13.29;77.23
3780;BME280;1905;52.482;9.802;2022-09-27T14:20:45;99125.00;;;13.35;76.94
3780;BME280;1905;52.482;9.802;2022-09-27T14:23:33;99120.41;;;13.37;76.73
3780;BME280;1905;52.482;9.802;2022-09-27T14:26:00;99121.16;;;13.39;76.68